Time;durP1;ratioP1;P1;durP2;ratioP2;P2;SDS_P1;SDS_P2;PMS_P1;PMS_P2;Temp;Humidity;BMP_temperature;BMP_pressure;BME280_temperature;BME280_humidity;BME280_pressure;Samples;Min_cycle;Max_cycle;Signal;HPM_P1;HPM_P2
2021/10/18 00:01:45;;;;;;;20.03;15.53;;;8.20;74.70;;;;;;5053129;28;20298;-80
2021/10/18 00:04:10;;;;;;;19.63;15.57;;;8.30;74.70;;;;;;5034813;28;20203;-80
2021/10/18 00:06:36;;;;;;;22.17;15.57;;;8.30;74.60;;;;;;5035267;28;20179;-80
2021/10/18 00:09:02;;;;;;;21.77;16.57;;;8.30;73.70;;;;;;5035067;28;20176;-80
2021/10/18 00:11:28;;;;;;;17.47;14.40;;;8.30;73.60;;;;;;5035345;28;20207;-80
2021/10/18 00:13:54;;;;;;;20.07;16.00;;;8.30;73.60;;;;;;5034841;28;20524;-80
2021/10/18 00:16:20;;;;;;;18.90;14.87;;;8.30;73.50;;;;;;5034909;28;20688;-79
2021/10/18 00:18:46;;;;;;;19.50;15.60;;;8.30;73.10;;;;;;5034623;28;20423;-78
2021/10/18 00:21:11;;;;;;;20.20;15.17;;;8.30;73.70;;;;;;5034855;28;20506;-79
2021/10/18 00:23:37;;;;;;;18.83;15.33;;;8.30;73.20;;;;;;5034720;28;20219;-79
2021/10/18 00:26:03;;;;;;;18.10;14.00;;;8.20;72.70;;;;;;5034839;28;20183;-78
2021/10/18 00:28:30;;;;;;;17.23;13.10;;;8.20;72.80;;;;;;5034522;28;20429;-78
2021/10/18 00:30:56;;;;;;;15.00;11.90;;;8.20;72.50;;;;;;5034928;28;20590;-78
2021/10/18 00:33:21;;;;;;;16.67;13.50;;;8.30;72.40;;;;;;5034520;28;20517;-79
2021/10/18 00:35:47;;;;;;;16.00;13.27;;;8.30;72.10;;;;;;5034546;28;20267;-78
2021/10/18 00:38:12;;;;;;;15.30;13.63;;;8.30;73.00;;;;;;5034530;28;20593;-78
2021/10/18 00:40:38;;;;;;;15.33;12.60;;;8.30;72.40;;;;;;5034517;28;20628;-78
2021/10/18 00:43:04;;;;;;;15.87;13.03;;;8.30;72.30;;;;;;5052270;28;20191;-78
2021/10/18 00:45:30;;;;;;;15.10;13.10;;;8.30;71.80;;;;;;5034421;28;20172;-78
2021/10/18 00:47:57;;;;;;;14.70;13.07;;;8.30;72.10;;;;;;5034124;28;20407;-79
2021/10/18 00:50:24;;;;;;;15.53;13.20;;;8.40;72.00;;;;;;5034283;28;20505;-79
2021/10/18 00:52:51;;;;;;;14.53;13.03;;;8.40;71.70;;;;;;5034441;28;20831;-78
2021/10/18 00:55:17;;;;;;;14.47;12.93;;;8.40;71.60;;;;;;5034218;28;20507;-78
2021/10/18 00:57:43;;;;;;;16.20;13.67;;;8.40;70.70;;;;;;5034014;28;20423;-79
2021/10/18 01:00:10;;;;;;;17.40;14.70;;;8.30;71.40;;;;;;5034067;28;20421;-79
2021/10/18 01:02:36;;;;;;;14.43;12.83;;;8.30;70.90;;;;;;5034004;28;20290;-81
2021/10/18 01:05:03;;;;;;;16.10;13.20;;;8.30;71.40;;;;;;5034004;28;20422;-79
2021/10/18 01:07:29;;;;;;;17.10;13.80;;;8.20;71.60;;;;;;5034044;28;20438;-79
2021/10/18 01:09:55;;;;;;;15.00;12.87;;;8.20;71.90;;;;;;5033987;28;20403;-80
2021/10/18 01:12:20;;;;;;;17.03;13.80;;;8.20;72.50;;;;;;5033981;28;20504;-79
2021/10/18 01:14:46;;;;;;;16.57;14.07;;;8.20;72.40;;;;;;5033872;28;20223;-79
2021/10/18 01:17:12;;;;;;;17.80;15.73;;;8.20;72.20;;;;;;5033913;28;20183;-80
2021/10/18 01:19:37;;;;;;;14.27;12.77;;;8.20;72.20;;;;;;5034182;28;20179;-79
2021/10/18 01:22:04;;;;;;;15.90;13.80;;;8.10;72.40;;;;;;5033971;28;20190;-78
2021/10/18 01:24:34;;;;;;;16.10;13.90;;;8.20;72.90;;;;;;5033888;28;20168;-80
2021/10/18 01:27:00;;;;;;;15.43;13.50;;;8.20;73.20;;;;;;5034063;28;20407;-78
2021/10/18 01:29:30;;;;;;;14.60;12.70;;;8.20;72.40;;;;;;5033791;28;20938;-78
2021/10/18 01:31:56;;;;;;;14.80;12.53;;;8.20;72.30;;;;;;5033980;28;20609;-79
2021/10/18 01:34:21;;;;;;;15.30;12.43;;;8.20;72.20;;;;;;5033722;28;20418;-79
2021/10/18 01:36:47;;;;;;;15.20;13.60;;;8.20;72.40;;;;;;5033833;28;20176;-79
2021/10/18 01:39:13;;;;;;;17.20;13.87;;;8.20;73.20;;;;;;5033775;28;20315;-79
2021/10/18 01:41:39;;;;;;;15.43;13.23;;;8.20;73.00;;;;;;5034134;28;20179;-79
2021/10/18 01:44:05;;;;;;;15.20;13.50;;;8.20;73.10;;;;;;5033574;28;20790;-79
2021/10/18 01:46:30;;;;;;;18.97;13.80;;;8.20;73.30;;;;;;5033716;28;20636;-79
2021/10/18 01:48:56;;;;;;;15.97;13.87;;;8.30;73.50;;;;;;5033651;28;20547;-79
2021/10/18 01:51:21;;;;;;;14.90;13.27;;;8.30;73.10;;;;;;5033734;28;20756;-79
2021/10/18 01:53:47;;;;;;;15.77;14.07;;;8.30;73.20;;;;;;5033758;28;20176;-81
2021/10/18 01:56:13;;;;;;;17.40;14.37;;;8.30;72.70;;;;;;5033711;28;20180;-81
2021/10/18 01:58:38;;;;;;;17.33;15.50;;;8.30;72.80;;;;;;5033444;28;20226;-81
2021/10/18 02:01:04;;;;;;;17.90;14.57;;;8.30;72.90;;;;;;5033734;28;20432;-81
2021/10/18 02:03:30;;;;;;;17.17;14.37;;;8.30;72.30;;;;;;5051385;28;20211;-81
2021/10/18 02:05:56;;;;;;;16.30;14.53;;;8.30;73.10;;;;;;5033583;28;20172;-81
2021/10/18 02:08:21;;;;;;;17.60;14.93;;;8.30;72.30;;;;;;5033446;28;20187;-81
2021/10/18 02:10:47;;;;;;;17.80;14.23;;;8.30;73.50;;;;;;5033625;28;20172;-81
2021/10/18 02:13:13;;;;;;;19.07;15.00;;;8.30;72.90;;;;;;5033401;28;20199;-81
2021/10/18 02:15:39;;;;;;;20.40;17.17;;;8.30;72.90;;;;;;5033843;28;20202;-81
2021/10/18 02:18:05;;;;;;;19.07;13.77;;;8.30;73.10;;;;;;5033274;28;20418;-81
2021/10/18 02:20:31;;;;;;;17.90;14.00;;;8.20;72.80;;;;;;5033470;28;20177;-81
2021/10/18 02:22:56;;;;;;;18.83;15.23;;;8.20;73.50;;;;;;5034386;28;20533;-81
2021/10/18 02:25:22;;;;;;;21.10;14.80;;;8.20;73.50;;;;;;5036948;28;20186;-81
2021/10/18 02:27:48;;;;;;;20.77;16.30;;;8.20;73.80;;;;;;5036816;28;20255;-81
2021/10/18 02:30:15;;;;;;;21.37;16.47;;;8.20;73.80;;;;;;5036913;28;20776;-81
2021/10/18 02:32:41;;;;;;;19.13;15.73;;;8.20;73.10;;;;;;5036980;28;20271;-81
2021/10/18 02:35:10;;;;;;;17.63;13.67;;;8.20;73.30;;;;;;5036745;28;20418;-81
2021/10/18 02:37:37;;;;;;;18.13;16.03;;;8.20;73.60;;;;;;5036993;28;20449;-81
2021/10/18 02:40:04;;;;;;;24.83;18.50;;;8.20;73.80;;;;;;5036820;28;20426;-81
2021/10/18 02:42:32;;;;;;;20.50;15.57;;;8.20;73.70;;;;;;5036644;28;20623;-82
2021/10/18 02:44:57;;;;;;;19.27;14.63;;;8.20;74.00;;;;;;5037091;28;20468;-85
2021/10/18 02:47:23;;;;;;;21.70;16.80;;;8.10;74.40;;;;;;5036779;28;20497;-81
2021/10/18 02:49:48;;;;;;;22.10;16.17;;;8.10;75.20;;;;;;5036582;28;20172;-81
2021/10/18 02:52:14;;;;;;;21.70;15.67;;;8.20;74.60;;;;;;5036518;28;20176;-81
2021/10/18 02:54:40;;;;;;;22.13;16.90;;;8.20;75.30;;;;;;5036456;28;20179;-81
2021/10/18 02:57:06;;;;;;;23.73;17.07;;;8.20;75.50;;;;;;5036150;28;20242;-81
2021/10/18 02:59:31;;;;;;;21.80;17.43;;;8.40;75.00;;;;;;5036549;28;20497;-81
2021/10/18 03:01:57;;;;;;;23.60;18.03;;;8.40;74.60;;;;;;5036239;28;20233;-81
2021/10/18 03:04:22;;;;;;;22.10;17.27;;;8.40;74.30;;;;;;5036301;28;20238;-81
2021/10/18 03:06:48;;;;;;;21.57;17.10;;;8.40;73.90;;;;;;5054044;28;20229;-81
2021/10/18 03:09:14;;;;;;;22.87;17.90;;;8.30;73.80;;;;;;5036439;28;20221;-81
2021/10/18 03:11:39;;;;;;;21.93;17.20;;;8.30;74.00;;;;;;5033451;28;20188;-81
2021/10/18 03:14:05;;;;;;;24.13;18.23;;;8.30;74.00;;;;;;5021177;28;20200;-81
2021/10/18 03:16:32;;;;;;;21.37;16.87;;;8.40;74.20;;;;;;5016249;28;20181;-81
2021/10/18 03:18:57;;;;;;;19.93;15.47;;;8.30;73.70;;;;;;5016232;28;20185;-81
2021/10/18 03:21:23;;;;;;;23.00;18.27;;;8.30;73.50;;;;;;5016623;28;20427;-81
2021/10/18 03:23:49;;;;;;;25.80;18.33;;;8.30;74.30;;;;;;5016466;28;20254;-80
2021/10/18 03:26:17;;;;;;;29.90;20.80;;;8.40;75.60;;;;;;5016409;28;20212;-80
2021/10/18 03:28:43;;;;;;;28.17;19.47;;;8.30;74.80;;;;;;5016325;28;20177;-81
2021/10/18 03:31:09;;;;;;;22.57;17.60;;;8.40;74.50;;;;;;5016422;28;20423;-81
2021/10/18 03:33:36;;;;;;;26.53;19.13;;;8.40;74.50;;;;;;5016032;28;20554;-81
2021/10/18 03:36:03;;;;;;;27.50;18.00;;;8.40;74.50;;;;;;5015387;28;20423;-81
2021/10/18 03:38:30;;;;;;;25.93;18.80;;;8.40;74.30;;;;;;5015820;28;20431;-80
2021/10/18 03:40:55;;;;;;;22.43;19.30;;;8.40;74.60;;;;;;5016130;28;20424;-80
2021/10/18 03:43:21;;;;;;;26.07;19.20;;;8.40;75.00;;;;;;5015647;28;20462;-81
2021/10/18 03:45:47;;;;;;;22.40;19.33;;;8.40;74.90;;;;;;5016139;28;20626;-81
2021/10/18 03:48:12;;;;;;;24.17;17.90;;;8.40;74.50;;;;;;5015779;28;20268;-81
2021/10/18 03:50:38;;;;;;;25.97;20.07;;;8.30;73.80;;;;;;5016207;28;20177;-81
2021/10/18 03:53:04;;;;;;;27.80;19.73;;;8.20;73.90;;;;;;5015997;28;20187;-81
2021/10/18 03:55:29;;;;;;;25.00;19.20;;;8.20;74.40;;;;;;5015856;28;20641;-81
2021/10/18 03:57:55;;;;;;;26.47;20.73;;;8.30;75.20;;;;;;5015746;28;20587;-81
2021/10/18 04:00:21;;;;;;;23.70;19.30;;;8.40;75.10;;;;;;5015903;28;20187;-80
2021/10/18 04:02:46;;;;;;;26.27;19.27;;;8.40;75.20;;;;;;5015709;28;20342;-80
2021/10/18 04:05:12;;;;;;;28.10;18.80;;;8.40;73.90;;;;;;5015784;28;20426;-81
2021/10/18 04:07:38;;;;;;;26.30;19.37;;;8.40;73.80;;;;;;5015457;28;20184;-80
2021/10/18 04:10:06;;;;;;;27.00;18.93;;;8.40;74.10;;;;;;5015658;28;20173;-81
2021/10/18 04:12:32;;;;;;;26.83;19.30;;;8.30;73.30;;;;;;5015477;28;20446;-80
2021/10/18 04:14:57;;;;;;;22.63;18.00;;;8.30;74.00;;;;;;5033506;28;20422;-80
2021/10/18 04:17:23;;;;;;;26.70;20.17;;;8.30;74.50;;;;;;5015420;28;20419;-80
2021/10/18 04:19:51;;;;;;;33.20;20.57;;;8.40;75.30;;;;;;5015651;28;20191;-79
2021/10/18 04:22:17;;;;;;;23.73;18.90;;;8.40;75.00;;;;;;5015412;28;20629;-82
2021/10/18 04:24:42;;;;;;;25.40;18.80;;;8.40;74.40;;;;;;5015481;28;20441;-80
2021/10/18 04:27:08;;;;;;;25.20;18.30;;;8.50;74.10;;;;;;5014886;28;20419;-81
2021/10/18 04:29:34;;;;;;;24.53;17.70;;;8.50;74.00;;;;;;5015499;28;20197;-80
2021/10/18 04:31:59;;;;;;;26.20;19.60;;;8.50;74.10;;;;;;5015463;28;20267;-81
2021/10/18 04:34:26;;;;;;;27.27;20.20;;;8.50;73.80;;;;;;5015148;28;20204;-80
2021/10/18 04:36:53;;;;;;;26.77;19.67;;;8.50;73.00;;;;;;5015006;28;20641;-80
2021/10/18 04:39:19;;;;;;;24.90;19.47;;;8.60;73.20;;;;;;5015226;28;20821;-84
2021/10/18 04:41:45;;;;;;;29.65;18.20;;;8.60;73.60;;;;;;5014628;28;20421;-80
2021/10/18 04:44:11;;;;;;;27.77;20.50;;;8.60;72.70;;;;;;5014941;28;20204;-77
2021/10/18 04:46:36;;;;;;;35.40;25.27;;;8.60;72.60;;;;;;5028492;28;20427;-82
2021/10/18 04:49:02;;;;;;;26.50;20.50;;;8.70;72.60;;;;;;5031367;28;20654;-79
2021/10/18 04:51:28;;;;;;;26.83;19.77;;;8.70;72.50;;;;;;5031305;28;20176;-80
2021/10/18 04:53:54;;;;;;;26.97;20.27;;;8.70;72.30;;;;;;5034447;28;20914;-82
2021/10/18 04:56:19;;;;;;;25.90;20.20;;;8.60;72.10;;;;;;5034695;28;20194;-80
2021/10/18 04:58:45;;;;;;;25.13;16.70;;;8.70;73.10;;;;;;5034158;28;20657;-78
2021/10/18 05:01:11;;;;;;;23.47;18.57;;;8.60;72.60;;;;;;5034484;28;20176;-81
2021/10/18 05:03:36;;;;;;;21.57;17.87;;;8.70;72.80;;;;;;5034450;28;20701;-80
2021/10/18 05:06:02;;;;;;;27.03;19.40;;;8.70;72.60;;;;;;5034695;28;20186;-81
2021/10/18 05:08:28;;;;;;;23.40;18.00;;;8.70;72.00;;;;;;5034243;28;20176;-80
2021/10/18 05:10:53;;;;;;;23.90;18.37;;;8.80;72.00;;;;;;5034530;28;20180;-79
2021/10/18 05:13:19;;;;;;;22.77;17.40;;;8.80;71.30;;;;;;5034206;28;20576;-79
2021/10/18 05:15:48;;;;;;;25.47;18.33;;;8.80;71.60;;;;;;5034542;28;20222;-78
2021/10/18 05:18:14;;;;;;;24.70;18.83;;;8.80;71.70;;;;;;5034391;28;20673;-79
2021/10/18 05:20:40;;;;;;;27.10;19.87;;;8.80;72.00;;;;;;5034204;28;20777;-79
2021/10/18 05:23:07;;;;;;;26.87;19.10;;;8.80;71.10;;;;;;5034410;28;20469;-78
2021/10/18 05:25:33;;;;;;;24.10;17.90;;;8.80;71.10;;;;;;5034220;28;20172;-78
2021/10/18 05:27:58;;;;;;;25.37;18.30;;;8.80;71.10;;;;;;5033070;28;20414;-78
2021/10/18 05:30:24;;;;;;;22.40;17.50;;;8.80;71.10;;;;;;5014521;28;20419;-78
2021/10/18 05:32:55;;;;;;;23.70;16.10;;;8.90;70.30;;;;;;5014657;28;20184;-79
2021/10/18 05:35:22;;;;;;;22.43;16.47;;;8.90;70.30;;;;;;5014329;28;20461;-78
2021/10/18 05:37:49;;;;;;;22.33;17.60;;;8.90;70.60;;;;;;5032108;28;20823;-78
2021/10/18 05:40:16;;;;;;;24.60;18.10;;;9.00;71.30;;;;;;5014403;28;20411;-78
2021/10/18 05:42:42;;;;;;;23.83;17.90;;;9.00;70.90;;;;;;5014547;28;20454;-80
2021/10/18 05:45:08;;;;;;;30.27;20.40;;;9.00;70.10;;;;;;5014272;28;20419;-78
2021/10/18 05:47:34;;;;;;;27.30;18.93;;;8.90;71.20;;;;;;5014202;28;20334;-78
2021/10/18 05:50:01;;;;;;;23.90;18.50;;;8.90;71.20;;;;;;5014125;28;20505;-80
2021/10/18 05:52:30;;;;;;;23.00;18.33;;;8.90;71.80;;;;;;5014512;28;20416;-78
2021/10/18 05:54:56;;;;;;;23.63;18.00;;;8.90;71.20;;;;;;5014228;28;20428;-78
2021/10/18 05:57:22;;;;;;;25.97;19.30;;;8.90;71.20;;;;;;5008691;28;20419;-80
2021/10/18 05:59:47;;;;;;;26.27;20.40;;;8.80;71.10;;;;;;5017399;28;20409;-79
2021/10/18 06:02:13;;;;;;;26.50;18.80;;;8.80;71.20;;;;;;5017837;28;20551;-79
2021/10/18 06:04:44;;;;;;;26.40;19.20;;;8.90;71.20;;;;;;5018023;28;20184;-78
2021/10/18 06:07:10;;;;;;;27.30;19.07;;;9.00;71.20;;;;;;5017412;28;20582;-78
2021/10/18 06:09:35;;;;;;;28.17;18.93;;;8.90;71.20;;;;;;5017904;28;20422;-77
2021/10/18 06:12:02;;;;;;;22.60;17.67;;;8.90;71.20;;;;;;5017735;28;20407;-77
2021/10/18 06:14:28;;;;;;;23.23;18.40;;;8.90;70.20;;;;;;5018253;28;20223;-78
2021/10/18 06:16:53;;;;;;;23.70;18.80;;;8.80;70.00;;;;;;5017487;28;20419;-78
2021/10/18 06:19:19;;;;;;;22.37;18.57;;;8.90;70.90;;;;;;5017797;28;20196;-77
2021/10/18 06:21:45;;;;;;;25.70;18.23;;;9.00;70.20;;;;;;5017600;28;20675;-79
2021/10/18 06:24:10;;;;;;;27.33;19.40;;;9.10;69.80;;;;;;5017881;28;20208;-79
2021/10/18 06:26:36;;;;;;;25.73;18.50;;;9.00;69.20;;;;;;5017841;28;20615;-79
2021/10/18 06:29:02;;;;;;;23.23;18.63;;;9.00;71.00;;;;;;5017890;28;20184;-78
2021/10/18 06:31:28;;;;;;;21.13;18.53;;;9.00;70.70;;;;;;5018014;28;20422;-79
2021/10/18 06:33:53;;;;;;;20.40;17.60;;;9.10;69.90;;;;;;5017411;28;20180;-79
2021/10/18 06:36:19;;;;;;;24.23;19.93;;;9.10;68.30;;;;;;5030765;28;20184;-79
2021/10/18 06:38:45;;;;;;;22.27;17.70;;;9.20;67.50;;;;;;5026485;28;20213;-78
2021/10/18 06:41:10;;;;;;;20.20;16.73;;;9.20;67.60;;;;;;5037884;28;20172;-78
2021/10/18 06:43:39;;;;;;;22.87;17.70;;;9.20;68.90;;;;;;5036745;28;20577;-78
2021/10/18 06:46:05;;;;;;;23.50;18.47;;;9.30;68.00;;;;;;5037182;28;20183;-78
2021/10/18 06:48:32;;;;;;;24.60;18.57;;;9.30;68.20;;;;;;5037174;28;20794;-78
2021/10/18 06:50:58;;;;;;;25.13;18.90;;;9.40;68.90;;;;;;5037506;28;20176;-78
2021/10/18 06:53:32;;;;;;;24.43;18.00;;;9.40;68.30;;;;;;5038023;28;20750;-79
2021/10/18 06:56:05;;;;;;;25.80;19.23;;;9.40;68.90;;;;;;5037572;28;20419;-79
2021/10/18 06:58:31;;;;;;;26.70;18.70;;;9.40;69.30;;;;;;5037375;28;20468;-79
2021/10/18 07:00:57;;;;;;;28.07;22.60;;;9.40;69.80;;;;;;5037430;28;20411;-79
2021/10/18 07:03:23;;;;;;;25.90;18.27;;;9.40;69.60;;;;;;5036759;28;20527;-78
2021/10/18 07:05:48;;;;;;;30.63;20.50;;;9.40;69.60;;;;;;5037167;28;20222;-79
2021/10/18 07:08:16;;;;;;;22.63;17.15;;;9.40;69.70;;;;;;5036613;28;20400;-79
2021/10/18 07:10:42;;;;;;;20.53;13.50;;;9.50;68.80;;;;;;5037555;28;20226;-79
2021/10/18 07:13:09;;;;;;;16.97;12.43;;;9.40;66.80;;;;;;5036924;28;20457;-79
2021/10/18 07:15:39;;;;;;;19.27;13.47;;;9.40;66.60;;;;;;5036770;28;20419;-79
2021/10/18 07:18:08;;;;;;;22.70;18.60;;;9.50;67.20;;;;;;5036188;28;20410;-79
2021/10/18 07:20:34;;;;;;;22.47;17.93;;;9.40;66.20;;;;;;5055155;28;20418;-79
2021/10/18 07:23:00;;;;;;;23.40;16.83;;;9.40;67.00;;;;;;5019374;28;20463;-79
2021/10/18 07:25:26;;;;;;;22.37;18.80;;;9.40;67.80;;;;;;5016919;28;20176;-81
2021/10/18 07:27:52;;;;;;;23.73;17.40;;;9.40;66.90;;;;;;5017716;28;20407;-80
2021/10/18 07:30:18;;;;;;;21.00;18.30;;;9.50;66.60;;;;;;5035575;28;20410;-79
2021/10/18 07:32:44;;;;;;;21.87;18.43;;;9.60;66.50;;;;;;5017259;28;20637;-80
2021/10/18 07:35:15;;;;;;;20.40;17.90;;;9.60;65.50;;;;;;5017533;28;20430;-80
2021/10/18 07:37:43;;;;;;;20.27;17.27;;;9.50;65.40;;;;;;5016846;28;20423;-79
2021/10/18 07:40:10;;;;;;;20.00;17.40;;;9.60;65.00;;;;;;5016975;28;20993;-80
2021/10/18 07:42:36;;;;;;;20.57;16.57;;;9.60;65.30;;;;;;5017039;28;20518;-79
2021/10/18 07:45:02;;;;;;;19.50;16.80;;;9.60;65.30;;;;;;5016663;28;20443;-80
2021/10/18 07:47:27;;;;;;;17.63;15.77;;;9.70;64.90;;;;;;5016738;28;20179;-79
2021/10/18 07:49:54;;;;;;;19.27;16.07;;;9.70;64.80;;;;;;5016671;28;20874;-78
2021/10/18 07:52:20;;;;;;;19.97;17.87;;;9.70;64.70;;;;;;5016872;28;20207;-79
2021/10/18 07:54:53;;;;;;;19.47;17.27;;;9.70;65.00;;;;;;5016347;28;20443;-79
2021/10/18 07:57:18;;;;;;;23.03;17.07;;;9.80;63.60;;;;;;5016337;28;20473;-79
2021/10/18 07:59:44;;;;;;;19.60;16.67;;;9.80;64.40;;;;;;5016250;28;20900;-79
2021/10/18 08:02:10;;;;;;;21.40;18.07;;;9.70;64.20;;;;;;5017091;28;20176;-82
2021/10/18 08:04:35;;;;;;;22.20;17.87;;;9.80;63.60;;;;;;5033548;28;20177;-82
2021/10/18 08:07:01;;;;;;;18.63;15.43;;;9.70;63.80;;;;;;5054972;28;20219;-83
2021/10/18 08:09:27;;;;;;;18.30;15.07;;;9.70;63.40;;;;;;5035749;28;20259;-82
2021/10/18 08:11:54;;;;;;;19.00;16.87;;;9.70;63.50;;;;;;5035565;28;20191;-81
2021/10/18 08:14:20;;;;;;;21.67;17.33;;;9.70;64.00;;;;;;5035373;28;20648;-82
2021/10/18 08:16:46;;;;;;;26.07;20.97;;;9.70;64.00;;;;;;5035335;28;20502;-82
2021/10/18 08:19:11;;;;;;;25.50;17.10;;;9.70;64.10;;;;;;5036248;28;20500;-82
2021/10/18 08:21:37;;;;;;;20.73;17.77;;;9.70;63.70;;;;;;5035379;28;20222;-81
2021/10/18 08:24:03;;;;;;;22.30;18.63;;;9.70;63.40;;;;;;5036227;28;20207;-83
2021/10/18 08:26:28;;;;;;;21.73;18.48;;;9.70;64.10;;;;;;5035857;28;20499;-82
2021/10/18 08:28:54;;;;;;;23.00;17.90;;;9.80;63.80;;;;;;5035699;28;20253;-81
2021/10/18 08:31:20;;;;;;;21.57;17.73;;;9.80;64.30;;;;;;5036748;28;20263;-82
2021/10/18 08:33:45;;;;;;;20.20;17.30;;;9.80;64.00;;;;;;5035895;28;20180;-82
2021/10/18 08:36:11;;;;;;;26.67;18.80;;;9.80;64.10;;;;;;5036180;28;20180;-82
2021/10/18 08:46:07;;;;;;;21.50;18.20;;;9.80;64.30;;;;;;5033760;28;20450;-82
2021/10/18 08:48:33;;;;;;;22.87;17.43;;;9.80;64.00;;;;;;5032894;28;20169;-82
2021/10/18 08:50:59;;;;;;;22.10;18.10;;;9.80;64.50;;;;;;5014896;28;20422;-81
2021/10/18 08:53:25;;;;;;;22.80;16.47;;;9.80;64.30;;;;;;5016182;28;20429;-81
2021/10/18 08:55:50;;;;;;;22.13;19.53;;;9.80;64.40;;;;;;5016050;28;20412;-81
2021/10/18 08:58:17;;;;;;;22.47;19.30;;;9.80;64.30;;;;;;5015732;28;20415;-82
2021/10/18 09:00:51;;;;;;;22.53;18.30;;;9.80;64.30;;;;;;5015830;28;20271;-81
2021/10/18 09:03:20;;;;;;;19.43;17.20;;;9.90;64.10;;;;;;5015709;28;20515;-81
2021/10/18 09:05:47;;;;;;;22.63;17.40;;;9.90;63.90;;;;;;5015192;28;20419;-83
2021/10/18 09:08:42;;;;;;;22.30;18.00;;;9.90;63.80;;;;;;5015387;28;20845;-82
2021/10/18 09:11:08;;;;;;;22.93;17.70;;;9.90;64.20;;;;;;5015467;28;20407;-82
2021/10/18 09:13:35;;;;;;;21.60;18.63;;;9.90;63.70;;;;;;5015713;28;20462;-82
2021/10/18 09:16:01;;;;;;;21.53;18.30;;;9.90;63.70;;;;;;5015502;28;20653;-82
2021/10/18 09:18:27;;;;;;;20.27;18.20;;;9.90;63.80;;;;;;5015586;28;20412;-82
2021/10/18 09:20:53;;;;;;;21.80;18.50;;;9.90;63.60;;;;;;5015898;28;20951;-83
2021/10/18 09:26:23;;;;;;;19.67;16.93;;;9.90;63.30;;;;;;5019894;28;20415;-82
2021/10/18 09:28:53;;;;;;;19.27;16.83;;;9.90;63.20;;;;;;5014680;28;20431;-82
2021/10/18 09:31:18;;;;;;;21.03;18.73;;;9.90;62.90;;;;;;5015457;28;20465;-82
2021/10/18 09:33:49;;;;;;;23.77;19.30;;;9.90;63.20;;;;;;5019474;28;20423;-82
2021/10/18 09:36:20;;;;;;;21.90;18.60;;;10.00;62.40;;;;;;5033287;28;20676;-82
2021/10/18 09:38:46;;;;;;;22.50;18.43;;;10.00;61.60;;;;;;5039413;28;20429;-82
2021/10/18 09:41:11;;;;;;;26.80;23.93;;;10.10;61.80;;;;;;5039438;28;20506;-82
2021/10/18 10:53:31;;;;;;;21.13;19.13;;;10.80;56.90;;;;;;5056353;28;20878;-82
2021/10/18 10:56:17;;;;;;;20.77;18.63;;;10.80;57.40;;;;;;5037523;28;20414;-82
2021/10/18 10:58:51;;;;;;;18.77;16.70;;;10.90;56.10;;;;;;5037638;28;20410;-83
2021/10/18 11:01:50;;;;;;;21.97;19.20;;;10.90;56.40;;;;;;5037883;28;20423;-82
2021/10/18 11:04:31;;;;;;;23.17;20.20;;;10.90;56.00;;;;;;5025956;28;20519;-81
2021/10/18 11:07:02;;;;;;;22.23;18.13;;;10.80;56.30;;;;;;5036163;28;20406;-82
2021/10/18 11:09:43;;;;;;;21.03;16.00;;;10.70;57.10;;;;;;5037505;28;20425;-82
2021/10/18 11:12:21;;;;;;;22.33;17.67;;;10.60;57.50;;;;;;5037070;28;20426;-82
2021/10/18 11:15:06;;;;;;;24.27;19.50;;;10.60;57.00;;;;;;5055366;28;20423;-83
2021/10/18 11:17:37;;;;;;;20.97;17.17;;;10.60;58.00;;;;;;5036722;28;20421;-81
2021/10/18 11:20:07;;;;;;;20.07;17.43;;;10.70;57.80;;;;;;5055265;28;20414;-85
2021/10/18 11:22:43;;;;;;;19.40;17.30;;;10.80;58.00;;;;;;5037729;28;20867;-82
2021/10/18 11:25:18;;;;;;;23.30;17.83;;;10.90;58.20;;;;;;5036489;28;20510;-80
2021/10/18 11:27:49;;;;;;;20.27;18.13;;;11.00;57.90;;;;;;5035899;28;20417;-83
2021/10/18 11:30:18;;;;;;;20.67;18.47;;;11.10;57.20;;;;;;5036601;28;20410;-83
2021/10/18 11:32:58;;;;;;;20.53;18.30;;;11.10;56.60;;;;;;5036898;28;20410;-83
2021/10/18 11:35:24;;;;;;;20.30;18.17;;;11.20;56.70;;;;;;5036314;28;20422;-83
2021/10/18 11:38:12;;;;;;;22.97;19.40;;;11.20;56.40;;;;;;5036062;28;20419;-83
2021/10/18 11:40:43;;;;;;;19.93;17.83;;;11.20;56.00;;;;;;5036751;28;20418;-82
2021/10/18 11:43:21;;;;;;;21.60;19.30;;;11.20;55.40;;;;;;5036436;28;20515;-83
2021/10/18 11:45:51;;;;;;;20.37;18.17;;;11.20;55.40;;;;;;5036348;28;20762;-83
2021/10/18 11:48:20;;;;;;;21.57;18.07;;;11.20;55.00;;;;;;5036459;28;20751;-82
2021/10/18 11:50:58;;;;;;;19.07;14.97;;;11.20;56.10;;;;;;5037966;28;20414;-85
2021/10/18 11:53:39;;;;;;;20.37;13.37;;;11.20;55.50;;;;;;5036843;28;20424;-83
2021/10/18 11:56:05;;;;;;;18.13;16.37;;;11.30;55.40;;;;;;5036420;28;20406;-84
2021/10/18 11:58:37;;;;;;;19.33;17.33;;;11.30;55.00;;;;;;5037584;28;20493;-84
2021/10/18 12:01:05;;;;;;;20.00;17.47;;;11.30;55.20;;;;;;5037228;28;20422;-84
2021/10/18 12:03:32;;;;;;;20.50;17.90;;;11.30;54.90;;;;;;5037496;28;20462;-84
2021/10/18 12:06:00;;;;;;;20.90;17.37;;;11.40;55.90;;;;;;5036660;28;20835;-84
2021/10/18 12:08:34;;;;;;;18.30;13.77;;;11.50;54.10;;;;;;5036302;28;20418;-84
2021/10/18 12:11:03;;;;;;;18.47;16.67;;;11.60;54.00;;;;;;5037282;28;20859;-84
2021/10/18 12:13:31;;;;;;;19.63;17.20;;;11.60;53.90;;;;;;5028871;28;20443;-84
2021/10/18 12:16:06;;;;;;;16.53;14.23;;;11.60;54.40;;;;;;5016524;28;20439;-83
2021/10/18 12:18:38;;;;;;;19.70;16.90;;;11.70;54.00;;;;;;5015286;28;20418;-80
2021/10/18 12:21:10;;;;;;;20.50;15.30;;;11.80;53.60;;;;;;5015891;28;20263;-80
2021/10/18 12:23:37;;;;;;;17.50;15.70;;;12.00;53.70;;;;;;5015545;28;20542;-82
2021/10/18 12:26:13;;;;;;;17.03;15.23;;;12.10;53.10;;;;;;5016206;28;20465;-82
2021/10/18 12:28:41;;;;;;;22.33;13.90;;;12.00;52.40;;;;;;5016865;28;20934;-84
2021/10/18 12:31:25;;;;;;;19.63;17.57;;;11.90;53.10;;;;;;5016322;28;20411;-83
2021/10/18 12:34:23;;;;;;;18.73;16.43;;;11.90;53.10;;;;;;5018061;28;20446;-84
2021/10/18 12:37:00;;;;;;;17.07;15.37;;;12.00;53.10;;;;;;5033675;28;20419;-85
2021/10/18 12:39:47;;;;;;;23.43;13.33;;;12.10;53.20;;;;;;5035362;28;20505;-85
2021/10/18 12:42:28;;;;;;;17.10;14.57;;;12.20;52.60;;;;;;5035617;28;20782;-84
2021/10/18 12:45:13;;;;;;;18.60;15.70;;;12.30;53.40;;;;;;5035211;28;20771;-85
2021/10/18 12:47:41;;;;;;;19.57;17.43;;;12.30;52.50;;;;;;5034878;28;20556;-85
2021/10/18 12:50:12;;;;;;;19.60;15.50;;;12.40;52.00;;;;;;5034799;28;20417;-84
2021/10/18 12:52:41;;;;;;;20.47;16.57;;;12.40;52.10;;;;;;5035473;28;20410;-83
2021/10/18 12:55:22;;;;;;;19.53;17.53;;;12.40;51.80;;;;;;5035201;28;20410;-84
2021/10/18 12:57:59;;;;;;;17.87;16.07;;;12.50;51.00;;;;;;5035081;28;20410;-86
2021/10/18 13:00:27;;;;;;;20.67;18.47;;;12.60;51.00;;;;;;5034813;28;20414;-85
2021/10/18 13:02:59;;;;;;;18.80;16.83;;;12.70;50.90;;;;;;5053207;28;20527;-86
2021/10/18 13:05:31;;;;;;;17.20;14.50;;;12.70;51.50;;;;;;5035024;28;20421;-84
2021/10/18 13:07:59;;;;;;;19.60;16.23;;;12.70;51.20;;;;;;5034600;28;20419;-82
2021/10/18 13:10:36;;;;;;;16.73;14.17;;;12.70;50.50;;;;;;5034565;28;20933;-84
2021/10/18 13:13:13;;;;;;;17.57;15.83;;;12.80;51.80;;;;;;5035791;28;20919;-84
2021/10/18 13:15:41;;;;;;;18.50;14.70;;;12.80;50.00;;;;;;5052805;28;20414;-86
2021/10/18 13:18:09;;;;;;;19.13;15.73;;;12.90;50.60;;;;;;5034898;28;20414;-84
2021/10/18 13:20:35;;;;;;;17.00;15.20;;;12.90;50.50;;;;;;5034951;28;20417;-85
2021/10/18 13:23:05;;;;;;;16.10;14.23;;;12.90;50.00;;;;;;5034821;28;20461;-85
2021/10/18 13:25:33;;;;;;;18.97;14.80;;;13.00;50.40;;;;;;5036017;28;20783;-84
2021/10/18 13:28:00;;;;;;;18.53;15.63;;;13.00;50.30;;;;;;5036511;28;20472;-87
2021/10/18 13:30:27;;;;;;;20.53;14.93;;;13.00;49.50;;;;;;5035957;28;20437;-84
2021/10/18 13:32:54;;;;;;;18.63;16.17;;;13.00;49.50;;;;;;5035312;28;20422;-87
2021/10/18 13:35:20;;;;;;;18.90;14.90;;;12.90;49.10;;;;;;5035009;28;20517;-84
2021/10/18 13:37:47;;;;;;;15.23;13.47;;;12.90;50.00;;;;;;5054127;28;20468;-85
2021/10/18 13:40:15;;;;;;;16.43;13.60;;;12.90;49.80;;;;;;5035606;28;20449;-87
2021/10/18 13:42:42;;;;;;;16.97;13.87;;;12.90;50.30;;;;;;5035061;28;20462;-88
2021/10/18 13:45:10;;;;;;;19.07;17.10;;;12.90;50.10;;;;;;5035348;28;20411;-87
2021/10/18 13:47:35;;;;;;;20.73;15.47;;;12.90;50.50;;;;;;5035793;28;20418;-87
2021/10/18 13:50:03;;;;;;;18.50;14.13;;;12.80;50.20;;;;;;5035325;28;20415;-86
2021/10/18 13:52:30;;;;;;;18.53;15.57;;;12.90;50.80;;;;;;5035513;28;20208;-86
2021/10/18 13:54:56;;;;;;;16.93;14.00;;;13.00;50.20;;;;;;5035324;28;20421;-87
2021/10/18 13:57:22;;;;;;;19.23;14.37;;;13.00;50.00;;;;;;5035232;28;20414;-87